createdAt,value
2023-03-02T00:00:16.410Z,2.20
2023-03-02T00:02:45.632Z,2.19
2023-03-02T00:05:14.988Z,2.17
2023-03-02T00:07:44.184Z,2.13
2023-03-02T00:10:13.306Z,2.13
2023-03-02T00:12:42.705Z,2.15
2023-03-02T00:15:13.409Z,2.15
2023-03-02T00:17:42.412Z,2.16
2023-03-02T00:20:12.843Z,2.18
2023-03-02T00:22:44.915Z,2.12
2023-03-02T00:25:15.691Z,2.11
2023-03-02T00:27:44.777Z,2.05
2023-03-02T00:30:16.004Z,2.09
2023-03-02T00:32:46.052Z,2.14
2023-03-02T00:35:14.810Z,2.15
2023-03-02T00:37:43.523Z,2.12
2023-03-02T00:40:13.147Z,2.11
2023-03-02T00:42:41.854Z,2.10
2023-03-02T00:45:11.238Z,2.07
2023-03-02T00:47:42.538Z,2.01
2023-03-02T00:50:12.434Z,2.00
2023-03-02T00:52:41.024Z,1.98
2023-03-02T00:55:10.584Z,1.93
2023-03-02T00:57:39.051Z,1.88
2023-03-02T01:00:10.160Z,1.85
2023-03-02T01:02:44.633Z,1.85
2023-03-02T01:05:18.086Z,1.80
2023-03-02T01:07:47.350Z,1.78
2023-03-02T01:10:16.230Z,1.80
2023-03-02T01:12:45.082Z,1.74
2023-03-02T01:15:14.288Z,1.66
2023-03-02T01:17:44.456Z,1.62
2023-03-02T01:20:13.818Z,1.51
2023-03-02T01:22:44.919Z,1.50
2023-03-02T01:25:14.574Z,1.53
2023-03-02T01:27:43.512Z,1.45
2023-03-02T01:30:13.620Z,1.44
2023-03-02T01:32:43.811Z,1.54
2023-03-02T01:35:12.674Z,1.52
2023-03-02T01:37:41.466Z,1.44
2023-03-02T01:40:14.354Z,1.45
2023-03-02T01:42:52.161Z,1.42
2023-03-02T01:45:43.035Z,1.35
2023-03-02T01:48:17.073Z,1.27
2023-03-02T01:50:46.707Z,1.26
2023-03-02T01:53:17.135Z,1.20
2023-03-02T01:55:47.353Z,1.14
2023-03-02T01:58:18.053Z,1.08
2023-03-02T02:00:47.322Z,1.02
2023-03-02T02:03:22.198Z,0.98
2023-03-02T02:06:00.966Z,0.94
2023-03-02T02:08:30.022Z,0.88
2023-03-02T02:10:59.909Z,0.92
2023-03-02T02:13:29.373Z,1.00
2023-03-02T02:15:58.191Z,1.06
2023-03-02T02:18:28.780Z,1.08
2023-03-02T02:20:58.420Z,1.04
2023-03-02T02:23:28.443Z,1.11
2023-03-02T02:26:28.692Z,1.14
2023-03-02T02:29:02.162Z,1.16
2023-03-02T02:31:37.602Z,1.14
2023-03-02T02:34:13.543Z,1.15
2023-03-02T02:36:48.927Z,1.10
2023-03-02T02:39:25.123Z,1.13
2023-03-02T02:41:58.252Z,1.12
2023-03-02T02:44:32.534Z,1.05
2023-03-02T02:47:02.328Z,1.06
2023-03-02T02:49:35.403Z,1.07
2023-03-02T02:52:06.924Z,1.06
2023-03-02T02:54:37.230Z,1.07
2023-03-02T02:57:06.871Z,0.99
2023-03-02T02:59:40.177Z,0.98
2023-03-02T03:02:16.932Z,0.99
2023-03-02T03:04:45.706Z,1.04
2023-03-02T03:07:18.825Z,1.02
2023-03-02T03:09:50.873Z,1.02
2023-03-02T03:12:23.779Z,1.04
2023-03-02T03:14:56.852Z,1.00
2023-03-02T03:17:25.672Z,1.02
2023-03-02T03:20:06.643Z,1.07
2023-03-02T03:22:40.346Z,1.03
2023-03-02T03:25:15.709Z,1.06
2023-03-02T03:27:47.966Z,1.03
2023-03-02T03:30:19.695Z,1.08
2023-03-02T03:32:49.073Z,1.10
2023-03-02T03:35:18.476Z,1.11
2023-03-02T03:37:49.003Z,1.08
2023-03-02T03:40:20.159Z,1.06
2023-03-02T03:42:50.129Z,1.06
2023-03-02T03:45:20.441Z,1.07
2023-03-02T03:47:49.253Z,1.11
2023-03-02T03:50:18.522Z,1.06
2023-03-02T03:52:47.472Z,1.06
2023-03-02T03:55:30.378Z,1.06
2023-03-02T03:58:00.169Z,1.11
2023-03-02T04:00:30.530Z,1.06
2023-03-02T04:03:06.679Z,1.08
2023-03-02T04:05:35.842Z,1.04
2023-03-02T04:08:05.959Z,1.01
2023-03-02T04:10:36.118Z,1.01
2023-03-02T04:13:04.989Z,0.98
2023-03-02T04:15:37.004Z,0.94
2023-03-02T04:18:05.846Z,0.90
2023-03-02T04:20:35.343Z,0.85
2023-03-02T04:23:04.267Z,0.87
2023-03-02T04:25:33.157Z,0.91
2023-03-02T04:28:17.648Z,0.86
2023-03-02T04:30:49.003Z,0.88
2023-03-02T04:33:17.936Z,0.92
2023-03-02T04:35:46.722Z,0.92
2023-03-02T04:38:16.021Z,0.91
2023-03-02T04:40:46.284Z,0.98
2023-03-02T04:43:14.780Z,0.98
2023-03-02T04:45:43.432Z,0.97
2023-03-02T04:48:13.645Z,1.02
2023-03-02T04:50:42.392Z,1.00
2023-03-02T04:53:12.637Z,1.01
2023-03-02T04:55:41.618Z,0.98
2023-03-02T04:58:10.888Z,1.06
2023-03-02T05:00:39.639Z,1.06
2023-03-02T05:03:08.599Z,1.07
2023-03-02T05:05:38.974Z,1.07
2023-03-02T05:08:07.745Z,1.07
2023-03-02T05:10:36.439Z,1.07
2023-03-02T05:13:06.082Z,1.10
2023-03-02T05:15:35.861Z,1.10
2023-03-02T05:18:04.402Z,1.11
2023-03-02T05:20:33.567Z,1.13
2023-03-02T05:23:05.874Z,1.11
2023-03-02T05:25:36.783Z,1.06
2023-03-02T05:28:06.433Z,1.02
2023-03-02T05:30:38.000Z,0.95
2023-03-02T05:33:06.999Z,0.93
2023-03-02T05:35:36.099Z,0.95
2023-03-02T05:38:06.496Z,0.97
2023-03-02T05:40:35.416Z,1.02
2023-03-02T05:43:04.177Z,1.04
2023-03-02T05:45:36.191Z,1.06
2023-03-02T05:48:05.531Z,1.05
2023-03-02T05:50:34.445Z,1.11
2023-03-02T05:53:03.801Z,1.19
2023-03-02T05:55:37.013Z,1.14
2023-03-02T05:58:06.339Z,1.17
2023-03-02T06:00:35.148Z,1.18
2023-03-02T06:03:03.906Z,1.20
2023-03-02T06:05:33.080Z,1.22
2023-03-02T06:08:01.964Z,1.29
2023-03-02T06:10:30.740Z,1.32
2023-03-02T06:13:01.046Z,1.33
2023-03-02T06:15:30.419Z,1.41
2023-03-02T06:17:59.472Z,1.41
2023-03-02T06:20:29.059Z,1.50
2023-03-02T06:22:58.751Z,1.59
2023-03-02T06:25:27.546Z,1.79
2023-03-02T06:27:56.330Z,1.94
2023-03-02T06:30:28.043Z,2.15
2023-03-02T06:32:56.946Z,2.42
2023-03-02T06:35:25.800Z,2.63
2023-03-02T06:37:54.666Z,2.84
2023-03-02T06:40:23.346Z,2.86
2023-03-02T06:42:52.124Z,3.12
2023-03-02T06:45:21.021Z,3.24
2023-03-02T06:47:51.128Z,3.29
2023-03-02T06:50:20.169Z,3.38
2023-03-02T06:52:48.951Z,3.37
2023-03-02T06:55:17.932Z,3.65
2023-03-02T06:57:46.660Z,3.74
2023-03-02T07:00:17.601Z,3.86
2023-03-02T07:02:46.782Z,3.88
2023-03-02T07:05:17.133Z,3.80
2023-03-02T07:07:46.059Z,3.89
2023-03-02T07:10:15.225Z,3.89
2023-03-02T07:12:44.341Z,3.98
2023-03-02T07:15:14.620Z,4.00
2023-03-02T07:17:46.024Z,4.10
2023-03-02T07:20:18.208Z,4.24
2023-03-02T07:22:47.142Z,4.36
2023-03-02T07:25:15.881Z,4.49
2023-03-02T07:27:44.946Z,4.65
2023-03-02T07:30:15.293Z,4.67
2023-03-02T07:32:45.420Z,4.81
2023-03-02T07:35:14.260Z,4.84
2023-03-02T07:37:44.730Z,4.93
2023-03-02T07:40:14.714Z,4.99
2023-03-02T07:42:43.520Z,4.82
2023-03-02T07:45:13.186Z,4.90
2023-03-02T07:47:42.034Z,4.91
2023-03-02T07:50:12.357Z,4.95
2023-03-02T07:52:41.150Z,5.08
2023-03-02T07:55:12.305Z,5.23
2023-03-02T07:57:41.028Z,5.28
2023-03-02T08:00:11.080Z,5.12
2023-03-02T08:02:43.074Z,5.24
2023-03-02T08:05:12.338Z,5.42
2023-03-02T08:07:41.328Z,5.51
2023-03-02T08:10:13.183Z,5.59
2023-03-02T08:12:43.232Z,5.66
2023-03-02T08:15:13.034Z,5.82
2023-03-02T08:17:41.489Z,5.91
2023-03-02T08:20:11.368Z,5.83
2023-03-02T08:22:40.275Z,5.91
2023-03-02T08:25:09.887Z,5.97
2023-03-02T08:27:40.437Z,5.95
2023-03-02T08:30:12.796Z,6.02
2023-03-02T08:32:41.719Z,6.25
2023-03-02T08:35:11.005Z,6.50
2023-03-02T08:37:39.861Z,6.63
2023-03-02T08:40:09.755Z,6.61
2023-03-02T08:42:39.974Z,6.63
2023-03-02T08:45:10.275Z,6.73
2023-03-02T08:47:39.184Z,6.82
2023-03-02T08:50:08.505Z,6.81
2023-03-02T08:52:37.246Z,7.01
2023-03-02T08:55:07.284Z,7.07
2023-03-02T08:57:36.099Z,6.95
2023-03-02T09:00:09.397Z,7.00
2023-03-02T09:02:38.165Z,7.15
2023-03-02T09:05:07.285Z,7.35
2023-03-02T09:07:36.127Z,7.67
2023-03-02T09:10:05.198Z,7.82
2023-03-02T09:12:34.212Z,7.89
2023-03-02T09:15:03.298Z,7.92
2023-03-02T09:17:33.660Z,7.84
2023-03-02T09:20:02.429Z,7.85
2023-03-02T09:22:32.106Z,7.99
2023-03-02T09:25:00.521Z,8.17
2023-03-02T09:27:29.255Z,8.24
2023-03-02T09:29:58.347Z,8.31
2023-03-02T09:32:27.256Z,8.58
2023-03-02T09:34:57.597Z,8.84
2023-03-02T09:37:26.401Z,8.99
2023-03-02T09:39:55.197Z,9.12
2023-03-02T09:42:43.881Z,9.24
2023-03-02T09:45:35.323Z,9.58
2023-03-02T09:48:14.822Z,9.52
2023-03-02T09:50:56.122Z,9.23
2023-03-02T09:53:46.324Z,9.43
2023-03-02T09:56:18.677Z,9.51
